Time;durP1;ratioP1;P1;durP2;ratioP2;P2;SDS_P1;SDS_P2;PMS_P1;PMS_P2;Temp;Humidity;BMP_temperature;BMP_pressure;BME280_temperature;BME280_humidity;BME280_pressure;Samples;Min_cycle;Max_cycle;Signal;HPM_P1;HPM_P2
2023/12/24 00:02:00;;;;;;;13.75;3.08;;;;;;;7.89;100.00;100243.22;4840919;29;20057;-80
2023/12/24 00:04:28;;;;;;;12.23;3.15;;;;;;;7.89;100.00;100237.97;4867355;29;20117;-81
2023/12/24 00:06:56;;;;;;;14.02;4.05;;;;;;;7.89;100.00;100235.34;4846227;29;20048;-80
2023/12/24 00:09:24;;;;;;;17.30;3.88;;;;;;;7.90;100.00;100238.00;4855004;29;20056;-80
2023/12/24 00:11:52;;;;;;;15.90;3.75;;;;;;;7.91;100.00;100238.88;4851531;29;20052;-80
2023/12/24 00:14:19;;;;;;;16.27;3.55;;;;;;;7.90;100.00;100231.84;4866888;29;20033;-80
2023/12/24 00:16:48;;;;;;;22.58;5.60;;;;;;;7.90;100.00;100237.09;4838377;29;20064;-80
2023/12/24 00:19:16;;;;;;;17.27;3.85;;;;;;;7.90;100.00;100229.22;4836248;29;20048;-80
2023/12/24 00:21:43;;;;;;;15.93;3.10;;;;;;;7.91;100.00;100241.50;4869762;29;20044;-81
2023/12/24 00:24:11;;;;;;;13.20;2.97;;;;;;;7.90;100.00;100221.34;4810578;29;20524;-79
2023/12/24 00:26:39;;;;;;;14.38;3.40;;;;;;;7.91;100.00;100223.13;4859909;29;20067;-80
2023/12/24 00:29:06;;;;;;;13.70;3.08;;;;;;;7.91;100.00;100225.75;4870212;29;20075;-79
2023/12/24 00:31:34;;;;;;;12.95;3.33;;;;;;;7.91;100.00;100226.63;4855708;29;20388;-81
2023/12/24 00:34:02;;;;;;;15.25;3.83;;;;;;;7.92;100.00;100214.38;4869799;29;20526;-82
2023/12/24 00:36:29;;;;;;;13.88;3.20;;;;;;;7.93;100.00;100226.63;4840250;29;20052;-80
2023/12/24 00:38:57;;;;;;;14.20;3.35;;;;;;;7.93;100.00;100218.75;4833233;29;20056;-81
2023/12/24 00:41:26;;;;;;;17.60;3.92;;;;;;;7.94;100.00;100217.88;4843833;29;20160;-81
2023/12/24 00:43:54;;;;;;;14.88;3.58;;;;;;;7.95;100.00;100217.00;4867222;29;20057;-80
2023/12/24 00:46:21;;;;;;;11.05;3.42;;;;;;;7.94;100.00;100202.13;4858802;29;20061;-80
2023/12/24 00:48:50;;;;;;;16.30;3.47;;;;;;;7.95;100.00;100214.38;4855953;29;20550;-79
2023/12/24 00:51:18;;;;;;;11.93;3.00;;;;;;;7.95;100.00;100210.00;4851008;29;20063;-80
2023/12/24 00:53:46;;;;;;;21.52;3.42;;;;;;;7.96;100.00;100206.53;4858233;29;20057;-79
2023/12/24 00:56:14;;;;;;;16.30;4.13;;;;;;;7.97;100.00;100208.25;4833038;29;20411;-81
2023/12/24 00:58:42;;;;;;;18.02;3.83;;;;;;;7.98;100.00;100202.16;4851927;29;20050;-80
2023/12/24 01:01:09;;;;;;;11.18;3.83;;;;;;;7.98;100.00;100198.66;4862203;29;20640;-81
2023/12/24 01:03:37;;;;;;;16.33;3.92;;;;;;;7.99;100.00;100205.66;4833123;29;20056;-80
2023/12/24 01:06:05;;;;;;;13.25;3.28;;;;;;;7.99;100.00;100203.91;4874576;29;20041;-80
2023/12/24 01:08:33;;;;;;;15.38;3.30;;;;;;;8.00;100.00;100204.78;4852266;29;20091;-80
2023/12/24 01:11:01;;;;;;;13.07;3.13;;;;;;;8.01;100.00;100185.53;4822705;29;20064;-80
2023/12/24 01:13:28;;;;;;;17.42;3.85;;;;;;;8.00;100.00;100181.19;4856376;29;20057;-80
2023/12/24 01:15:56;;;;;;;18.50;3.78;;;;;;;8.00;100.00;100191.69;4851748;29;20052;-80
2023/12/24 01:18:23;;;;;;;12.10;3.20;;;;;;;8.00;100.00;100187.28;4853618;29;20069;-80
2023/12/24 01:20:51;;;;;;;24.80;3.80;;;;;;;7.99;100.00;100197.78;4871593;29;20045;-80
2023/12/24 01:23:18;;;;;;;13.60;3.40;;;;;;;7.99;100.00;100185.53;4839654;29;20331;-80
2023/12/24 01:25:46;;;;;;;15.27;3.70;;;;;;;7.98;100.00;100191.66;4829836;29;20415;-80
2023/12/24 01:28:13;;;;;;;15.52;3.97;;;;;;;7.98;100.00;100175.06;4855256;29;20053;-80
2023/12/24 01:30:41;;;;;;;14.48;3.50;;;;;;;7.98;100.00;100193.41;4853841;29;20053;-80
2023/12/24 01:33:08;;;;;;;16.33;3.22;;;;;;;7.97;100.00;100189.91;4843422;29;20513;-80
2023/12/24 01:35:37;;;;;;;15.13;3.38;;;;;;;7.97;100.00;100189.91;4871949;29;20053;-80
2023/12/24 01:38:05;;;;;;;10.90;3.78;;;;;;;7.97;100.00;100191.66;4856668;29;20108;-81
2023/12/24 01:40:32;;;;;;;14.23;3.65;;;;;;;7.98;100.00;100180.31;4873916;29;20044;-81
2023/12/24 01:43:01;;;;;;;14.88;2.70;;;;;;;7.97;100.00;100173.28;4828141;29;20056;-80
2023/12/24 01:45:29;;;;;;;16.05;5.13;;;;;;;7.98;100.00;100172.44;4866097;29;20045;-80
2023/12/24 01:47:57;;;;;;;14.48;3.10;;;;;;;7.98;100.00;100172.44;4847495;29;20422;-80
2023/12/24 01:50:27;;;;;;;15.55;3.20;;;;;;;7.97;100.00;100168.91;4863563;29;20052;-81
2023/12/24 01:52:55;;;;;;;15.73;3.67;;;;;;;7.98;100.00;100160.19;4852173;29;20056;-82
2023/12/24 01:55:24;;;;;;;14.63;3.42;;;;;;;7.99;100.00;100163.66;4837173;29;20045;-80
2023/12/24 01:57:51;;;;;;;12.23;3.33;;;;;;;7.98;100.00;100156.69;4818285;29;20045;-80
2023/12/24 02:00:19;;;;;;;15.85;3.20;;;;;;;8.00;100.00;100162.81;4859183;29;20076;-81
2023/12/24 02:02:50;;;;;;;12.73;3.75;;;;;;;7.99;100.00;100169.78;4857725;29;20053;-79
2023/12/24 02:05:18;;;;;;;13.82;3.47;;;;;;;7.99;100.00;100161.03;4847028;29;20491;-79
2023/12/24 02:07:47;;;;;;;15.93;3.17;;;;;;;7.99;100.00;100161.91;4858183;29;20049;-81
2023/12/24 02:10:15;;;;;;;11.52;3.10;;;;;;;8.00;100.00;100155.81;4846430;29;20045;-81
2023/12/24 02:12:42;;;;;;;12.52;3.05;;;;;;;8.00;100.00;100152.31;4858371;29;20065;-80
2023/12/24 02:15:10;;;;;;;9.93;2.70;;;;;;;7.99;100.00;100153.19;4802745;29;23686;-79
2023/12/24 02:17:39;;;;;;;15.52;3.20;;;;;;;8.00;100.00;100139.19;4858292;29;20072;-80
2023/12/24 02:20:07;;;;;;;7.43;3.15;;;;;;;8.01;100.00;100140.94;4845304;29;20060;-80
2023/12/24 02:22:35;;;;;;;13.57;3.42;;;;;;;8.00;100.00;100134.81;4844361;29;20534;-80
2023/12/24 02:25:04;;;;;;;9.55;2.50;;;;;;;8.00;100.00;100131.34;4846370;29;20057;-80
2023/12/24 02:28:14;;;;;;;12.05;2.70;;;;;;;8.00;100.00;100133.94;4859438;29;20049;-81
2023/12/24 02:30:44;;;;;;;8.45;2.85;;;;;;;7.98;100.00;100118.19;4819537;29;20071;-80
2023/12/24 02:33:13;;;;;;;9.57;2.70;;;;;;;7.99;100.00;100121.69;4851124;29;20060;-81
2023/12/24 02:35:43;;;;;;;11.68;3.53;;;;;;;7.99;100.00;100116.44;4858245;29;20064;-80
2023/12/24 02:38:11;;;;;;;13.77;3.70;;;;;;;8.00;100.00;100103.34;4845474;29;20053;-80
2023/12/24 02:40:39;;;;;;;10.73;3.45;;;;;;;8.00;100.00;100116.44;4848159;29;20459;-81
2023/12/24 02:43:08;;;;;;;9.65;3.50;;;;;;;8.01;100.00;100098.94;4854156;29;20056;-81
2023/12/24 02:45:39;;;;;;;;;;;;;;;8.01;100.00;100106.81;4819551;29;20496;-80
2023/12/24 02:48:09;;;;;;;8.57;2.88;;;;;;;8.02;100.00;100094.59;4869950;29;19924;-80
2023/12/24 02:50:36;;;;;;;12.40;3.20;;;;;;;8.01;100.00;100088.47;4874375;29;20707;-82
2023/12/24 02:53:04;;;;;;;15.75;3.88;;;;;;;8.02;100.00;100081.50;4847236;29;20053;-80
2023/12/24 02:55:31;;;;;;;10.63;3.22;;;;;;;8.01;100.00;100088.47;4842081;29;20053;-80
2023/12/24 02:57:59;;;;;;;8.00;3.13;;;;;;;8.02;100.00;100082.34;4845843;29;20512;-80
2023/12/24 03:00:26;;;;;;;9.45;3.30;;;;;;;8.03;100.00;100089.34;4825044;29;20056;-80
2023/12/24 03:02:54;;;;;;;12.13;3.60;;;;;;;8.05;100.00;100078.84;4844030;29;20607;-80
2023/12/24 03:05:23;;;;;;;11.60;3.25;;;;;;;8.06;100.00;100088.47;4838294;29;20053;-80
2023/12/24 03:07:51;;;;;;;9.15;3.30;;;;;;;8.07;100.00;100074.47;4846688;29;20048;-80
2023/12/24 03:10:18;;;;;;;10.07;3.50;;;;;;;8.07;100.00;100067.50;4855936;29;20102;-80
2023/12/24 03:12:46;;;;;;;11.35;3.40;;;;;;;8.09;100.00;100073.63;4839925;29;20053;-80
2023/12/24 03:15:13;;;;;;;12.45;3.83;;;;;;;8.11;100.00;100073.59;4851466;29;20076;-80
2023/12/24 03:17:40;;;;;;;10.38;3.58;;;;;;;8.11;100.00;100074.50;4814640;29;20057;-80
2023/12/24 03:20:09;;;;;;;11.50;3.83;;;;;;;8.12;100.00;100077.97;4853569;29;20057;-80
2023/12/24 03:22:36;;;;;;;12.32;4.00;;;;;;;8.14;100.00;100071.00;4846179;29;20056;-79
2023/12/24 03:25:04;;;;;;;14.68;3.80;;;;;;;8.15;100.00;100062.25;4842435;29;20426;-80
2023/12/24 03:27:31;;;;;;;12.00;4.05;;;;;;;8.15;100.00;100059.63;4845197;29;20040;-80
2023/12/24 03:30:00;;;;;;;10.70;3.80;;;;;;;8.16;100.00;100056.97;4843875;29;20076;-79
2023/12/24 03:32:27;;;;;;;13.10;3.00;;;;;;;8.15;100.00;100047.38;4837305;29;20551;-81
2023/12/24 03:34:55;;;;;;;6.85;3.17;;;;;;;8.17;100.00;100053.50;4854654;29;20061;-81
2023/12/24 03:37:22;;;;;;;8.60;2.88;;;;;;;8.18;100.00;100049.13;4845703;29;24111;-80
2023/12/24 03:39:50;;;;;;;14.43;3.00;;;;;;;8.19;100.00;100043.00;4853910;29;20053;-80
2023/12/24 03:42:17;;;;;;;12.57;3.08;;;;;;;8.19;100.00;100043.88;4855364;29;20059;-79
2023/12/24 03:44:45;;;;;;;10.48;3.00;;;;;;;8.19;100.00;100048.25;4845484;29;20060;-79
2023/12/24 03:47:12;;;;;;;11.15;2.80;;;;;;;8.22;100.00;100039.50;4833990;29;20451;-79
2023/12/24 03:49:40;;;;;;;10.27;3.00;;;;;;;8.22;100.00;100040.34;4869387;29;20513;-80
2023/12/24 03:52:08;;;;;;;9.63;2.10;;;;;;;8.22;100.00;100040.34;4857522;29;20168;-80
2023/12/24 03:54:35;;;;;;;9.77;2.25;;;;;;;8.23;100.00;100043.88;4832584;29;20056;-80
2023/12/24 03:57:02;;;;;;;9.65;2.55;;;;;;;8.23;100.00;100030.75;4870158;29;20053;-80
2023/12/24 03:59:30;;;;;;;4.90;2.38;;;;;;;8.23;100.00;100034.25;4846644;29;20045;-79
2023/12/24 04:01:59;;;;;;;6.40;1.90;;;;;;;8.24;100.00;100024.63;4847393;29;20060;-79
2023/12/24 04:04:26;;;;;;;7.25;2.10;;;;;;;8.24;100.00;100022.00;4850624;29;20060;-80
2023/12/24 04:06:54;;;;;;;10.25;2.42;;;;;;;8.25;100.00;100029.88;4872329;29;20060;-79
2023/12/24 04:09:22;;;;;;;6.78;2.13;;;;;;;8.26;100.00;100025.50;4862356;29;20427;-81
2023/12/24 04:11:50;;;;;;;4.90;1.30;;;;;;;8.26;100.00;100028.13;4872870;29;20388;-81
2023/12/24 04:14:18;;;;;;;5.03;1.85;;;;;;;8.28;100.00;100034.22;4844275;29;20061;-81
2023/12/24 04:16:45;;;;;;;2.65;1.48;;;;;;;8.28;100.00;100011.50;4855308;29;20045;-80
2023/12/24 04:19:12;;;;;;;6.95;2.00;;;;;;;8.29;100.00;100013.25;4820753;29;20053;-82
2023/12/24 04:21:40;;;;;;;3.17;1.55;;;;;;;8.30;100.00;100011.47;4853006;29;20053;-81
2023/12/24 04:24:08;;;;;;;5.85;1.90;;;;;;;8.30;100.00;100007.13;4847234;29;20908;-79
2023/12/24 04:26:36;;;;;;;5.00;1.60;;;;;;;8.32;100.00;100010.63;4839205;29;20064;-81
2023/12/24 04:29:05;;;;;;;3.88;1.60;;;;;;;8.33;100.00;100001.00;4835499;29;20502;-79
2023/12/24 04:31:39;;;;;;;5.32;2.10;;;;;;;8.34;100.00;100014.13;4851453;29;20052;-79
2023/12/24 04:34:07;;;;;;;4.72;1.75;;;;;;;8.35;100.00;100004.47;4837251;29;20049;-81
2023/12/24 04:36:35;;;;;;;3.72;1.80;;;;;;;8.35;100.00;99991.34;4854993;29;20053;-80
2023/12/24 04:39:02;;;;;;;2.92;1.50;;;;;;;8.36;100.00;99999.25;4869076;29;20052;-79
2023/12/24 04:41:31;;;;;;;5.15;1.45;;;;;;;8.36;100.00;99996.63;4846856;29;20049;-80
2023/12/24 04:44:01;;;;;;;3.70;1.58;;;;;;;8.37;100.00;99992.22;4846188;29;20057;-80
2023/12/24 04:46:28;;;;;;;2.15;1.40;;;;;;;8.38;100.00;99994.00;4836553;29;20049;-79
2023/12/24 04:48:56;;;;;;;2.88;1.48;;;;;;;8.38;100.00;99989.59;4834770;29;20045;-80
2023/12/24 04:51:24;;;;;;;3.58;1.65;;;;;;;8.39;100.00;100007.13;4837863;29;20045;-80
2023/12/24 04:53:51;;;;;;;4.35;1.90;;;;;;;8.40;100.00;99992.22;4855288;29;20068;-80
2023/12/24 04:56:20;;;;;;;3.38;1.60;;;;;;;8.41;100.00;99996.59;4844530;29;20072;-81
2023/12/24 04:58:48;;;;;;;4.55;1.98;;;;;;;8.42;100.00;99987.03;4850630;29;20041;-79
2023/12/24 05:01:17;;;;;;;5.82;2.15;;;;;;;8.42;100.00;99985.25;4823792;29;20053;-80
2023/12/24 05:03:44;;;;;;;2.00;1.83;;;;;;;8.43;100.00;99986.13;4864293;29;20048;-79
2023/12/24 05:06:12;;;;;;;6.13;2.13;;;;;;;8.44;100.00;99988.75;4791760;29;20056;-79
2023/12/24 05:08:40;;;;;;;5.90;2.28;;;;;;;8.45;100.00;99990.50;4844927;29;20071;-79
2023/12/24 05:11:09;;;;;;;3.80;2.72;;;;;;;8.46;100.00;99991.38;4846297;29;20065;-81
2023/12/24 05:13:36;;;;;;;3.97;2.42;;;;;;;8.47;100.00;99993.13;4861310;29;20053;-79
2023/12/24 05:16:05;;;;;;;2.80;2.22;;;;;;;8.47;100.00;99986.13;4847549;29;20056;-79
2023/12/24 05:18:33;;;;;;;2.67;2.20;;;;;;;8.49;100.00;99983.50;4861518;29;20056;-80
2023/12/24 05:21:02;;;;;;;6.43;2.75;;;;;;;8.50;100.00;99986.09;4831854;29;20045;-80
2023/12/24 05:23:31;;;;;;;2.95;2.30;;;;;;;8.50;100.00;99988.72;4853308;29;20068;-81
2023/12/24 05:25:58;;;;;;;3.50;2.55;;;;;;;8.53;100.00;99987.88;4870238;29;20438;-80
2023/12/24 05:28:26;;;;;;;6.10;2.13;;;;;;;8.52;100.00;99986.97;4868029;29;20684;-80
2023/12/24 05:30:53;;;;;;;6.78;2.50;;;;;;;8.54;100.00;99984.34;4842497;29;20060;-80
2023/12/24 05:33:21;;;;;;;3.97;2.38;;;;;;;8.55;100.00;99973.00;4852694;29;20056;-79
2023/12/24 05:35:49;;;;;;;6.97;2.58;;;;;;;8.56;100.00;99979.97;4861168;29;20059;-81
2023/12/24 05:38:18;;;;;;;6.70;2.38;;;;;;;8.56;100.00;99973.00;4829364;29;20049;-80
2023/12/24 05:40:47;;;;;;;3.55;1.90;;;;;;;8.58;100.00;99976.47;4861232;29;20048;-79
2023/12/24 05:43:14;;;;;;;7.22;2.40;;;;;;;8.59;100.00;99972.97;4846741;29;20072;-80
2023/12/24 05:45:41;;;;;;;4.07;2.60;;;;;;;8.61;100.00;99969.47;4876586;29;20053;-80
2023/12/24 05:48:09;;;;;;;6.28;2.67;;;;;;;8.62;100.00;99972.09;4845050;29;20516;-80
2023/12/24 05:50:39;;;;;;;7.00;2.90;;;;;;;8.62;100.00;99964.22;4859935;29;20057;-80
2023/12/24 05:53:06;;;;;;;8.70;2.80;;;;;;;8.64;100.00;99975.59;4822365;29;20075;-81
2023/12/24 05:55:34;;;;;;;10.10;2.80;;;;;;;8.66;100.00;99979.09;4859642;29;20298;-80
2023/12/24 05:58:01;;;;;;;10.50;3.10;;;;;;;8.67;100.00;99956.31;4849239;29;20053;-80
2023/12/24 06:00:29;;;;;;;7.50;3.47;;;;;;;8.68;100.00;99963.31;4860880;29;20060;-80
2023/12/24 06:03:00;;;;;;;11.68;4.35;;;;;;;8.71;100.00;99955.41;4842077;29;20068;-80
2023/12/24 06:05:28;;;;;;;10.60;3.88;;;;;;;8.72;100.00;99950.16;4873705;29;20061;-80
2023/12/24 06:07:55;;;;;;;11.65;4.05;;;;;;;8.75;100.00;99957.16;4840385;29;20163;-79
2023/12/24 06:10:23;;;;;;;9.88;4.25;;;;;;;8.77;100.00;99950.13;4814991;29;20057;-81
2023/12/24 06:12:53;;;;;;;11.15;4.00;;;;;;;8.77;100.00;99945.78;4820803;29;20061;-81
2023/12/24 06:15:20;;;;;;;10.10;4.10;;;;;;;8.77;100.00;99943.16;4811410;29;20065;-81
2023/12/24 06:17:48;;;;;;;13.20;4.45;;;;;;;8.79;100.00;99948.41;4846165;29;20410;-82
2023/12/24 06:20:15;;;;;;;12.50;4.30;;;;;;;8.81;100.00;99953.63;4823653;29;20057;-80
2023/12/24 06:22:43;;;;;;;13.93;4.68;;;;;;;8.81;100.00;99961.50;4837942;29;20053;-78
2023/12/24 06:25:10;;;;;;;16.05;4.25;;;;;;;8.82;100.00;99952.75;4803311;29;20053;-79
2023/12/24 06:27:38;;;;;;;16.20;4.45;;;;;;;8.82;100.00;99948.38;4837914;29;20056;-81
2023/12/24 06:30:06;;;;;;;16.38;4.32;;;;;;;8.84;100.00;99945.75;4799039;29;20065;-80
2023/12/24 06:32:33;;;;;;;26.67;5.35;;;;;;;8.85;100.00;99944.88;4838854;29;20427;-80
2023/12/24 06:35:03;;;;;;;24.00;4.72;;;;;;;8.85;100.00;99937.00;4801967;29;20063;-79
2023/12/24 06:37:31;;;;;;;19.40;4.10;;;;;;;8.86;100.00;99929.09;4838590;29;20060;-79
2023/12/24 06:39:58;;;;;;;18.52;4.60;;;;;;;8.87;100.00;99933.47;4829177;29;20045;-80
2023/12/24 06:42:26;;;;;;;19.17;4.57;;;;;;;8.88;100.00;99929.09;4828509;29;20064;-80
2023/12/24 06:44:53;;;;;;;21.58;4.78;;;;;;;8.87;100.00;99917.72;4826700;29;20057;-79
2023/12/24 06:47:21;;;;;;;15.32;4.60;;;;;;;8.88;100.00;99919.44;4836241;29;20060;-80
2023/12/24 06:49:48;;;;;;;16.92;5.07;;;;;;;8.88;100.00;99932.56;4844155;29;20057;-80
2023/12/24 06:52:16;;;;;;;11.05;4.00;;;;;;;8.89;100.00;99923.81;4829434;29;20058;-80
2023/12/24 06:54:43;;;;;;;14.93;5.30;;;;;;;8.91;100.00;99931.69;4837618;29;20060;-80
2023/12/24 06:57:11;;;;;;;15.98;5.05;;;;;;;8.92;100.00;99929.06;4798315;29;20495;-79
2023/12/24 06:59:38;;;;;;;13.20;4.22;;;;;;;8.92;100.00;99921.19;4834180;29;20045;-80
2023/12/24 07:02:07;;;;;;;18.95;4.47;;;;;;;8.93;100.00;99907.16;4834318;29;20050;-80
2023/12/24 07:04:34;;;;;;;21.95;4.85;;;;;;;8.93;100.00;99907.16;4853089;29;20054;-80
2023/12/24 07:07:02;;;;;;;15.93;5.45;;;;;;;8.94;100.00;99914.19;4825524;29;20055;-79
2023/12/24 07:09:29;;;;;;;14.48;4.55;;;;;;;8.95;100.00;99913.28;4843683;29;20050;-80
2023/12/24 07:11:56;;;;;;;17.52;4.05;;;;;;;8.96;100.00;99912.41;4805403;29;20050;-80
2023/12/24 07:14:26;;;;;;;18.85;4.80;;;;;;;8.98;100.00;99907.16;4811029;29;20077;-80
2023/12/24 07:16:53;;;;;;;10.95;3.85;;;;;;;8.99;100.00;99903.63;4837519;29;20057;-80
2023/12/24 07:19:22;;;;;;;20.92;5.68;;;;;;;9.01;100.00;99916.75;4842647;29;20056;-80
2023/12/24 07:21:49;;;;;;;18.17;3.95;;;;;;;9.04;100.00;99908.88;4858700;29;20064;-80
2023/12/24 07:24:16;;;;;;;17.92;4.63;;;;;;;9.05;100.00;99915.84;4828592;29;20054;-80
2023/12/24 07:26:44;;;;;;;14.05;3.67;;;;;;;9.06;100.00;99915.00;4796950;29;20420;-81
2023/12/24 07:29:12;;;;;;;14.32;4.22;;;;;;;9.07;100.00;99922.84;4832369;29;20064;-79
2023/12/24 07:31:39;;;;;;;15.65;4.55;;;;;;;9.08;100.00;99935.13;4858079;29;20045;-80
2023/12/24 07:34:08;;;;;;;14.75;4.20;;;;;;;9.11;100.00;99923.69;4843319;29;20551;-79
2023/12/24 07:36:35;;;;;;;17.00;4.65;;;;;;;9.14;100.00;99913.19;4830856;29;20436;-79
2023/12/24 07:39:03;;;;;;;17.98;4.65;;;;;;;9.17;100.00;99923.69;4835701;29;20056;-81
2023/12/24 07:41:31;;;;;;;18.80;4.28;;;;;;;9.17;100.00;99919.28;4798591;29;20056;-81
2023/12/24 07:44:01;;;;;;;16.42;3.78;;;;;;;9.19;100.00;99906.16;4837353;29;20424;-81
2023/12/24 07:46:28;;;;;;;15.05;3.38;;;;;;;9.20;100.00;99909.66;4831602;29;20516;-82
2023/12/24 07:48:56;;;;;;;21.90;4.32;;;;;;;9.20;100.00;99892.09;4847766;29;20054;-80
2023/12/24 07:51:23;;;;;;;16.98;4.05;;;;;;;9.22;100.00;99900.00;4844010;29;20068;-81
2023/12/24 07:53:50;;;;;;;21.63;4.43;;;;;;;9.23;100.00;99899.13;4855471;29;20175;-81
2023/12/24 07:56:18;;;;;;;14.95;3.78;;;;;;;9.23;100.00;99902.63;4817853;29;20065;-82
2023/12/24 07:58:47;;;;;;;22.02;4.68;;;;;;;9.25;100.00;99906.09;4784729;29;20085;-82
2023/12/24 08:01:15;;;;;;;17.55;4.85;;;;;;;9.26;100.00;99897.34;4840930;29;20061;-80
2023/12/24 08:03:42;;;;;;;20.52;4.68;;;;;;;9.28;100.00;99897.31;4844527;29;20543;-80
2023/12/24 08:06:09;;;;;;;18.63;3.63;;;;;;;9.30;100.00;99909.59;4836281;29;20056;-80
2023/12/24 08:08:37;;;;;;;20.92;3.83;;;;;;;9.31;100.00;99900.78;4853922;29;20064;-80
2023/12/24 08:11:05;;;;;;;25.48;5.05;;;;;;;9.31;100.00;99886.78;4862355;29;20049;-80
2023/12/24 08:13:42;;;;;;;20.10;4.03;;;;;;;9.32;100.00;99892.03;4796866;29;20567;-81
2023/12/24 08:16:13;;;;;;;22.15;4.53;;;;;;;9.33;100.00;99885.88;4836171;29;20518;-81
2023/12/24 08:18:41;;;;;;;20.50;5.35;;;;;;;9.33;100.00;99896.41;4867603;29;20053;-81
2023/12/24 08:21:10;;;;;;;23.55;5.05;;;;;;;9.33;100.00;99891.13;4870285;29;20068;-81
2023/12/24 08:23:38;;;;;;;15.55;4.38;;;;;;;9.35;100.00;99891.13;4842949;29;20046;-82
2023/12/24 08:26:05;;;;;;;23.13;4.55;;;;;;;9.34;100.00;99890.28;4845679;29;20057;-82
2023/12/24 08:28:33;;;;;;;23.42;4.50;;;;;;;9.35;100.00;99876.22;4813149;29;20088;-80
2023/12/24 08:31:00;;;;;;;16.02;4.72;;;;;;;9.36;100.00;99892.91;4851928;29;20514;-80
2023/12/24 08:33:28;;;;;;;15.52;4.45;;;;;;;9.36;100.00;99896.38;4842354;29;20057;-80
2023/12/24 08:35:56;;;;;;;17.13;4.57;;;;;;;9.37;100.00;99889.38;4848188;29;20068;-82
2023/12/24 08:38:24;;;;;;;18.38;5.03;;;;;;;9.37;100.00;99884.09;4874495;29;20049;-80
2023/12/24 08:40:51;;;;;;;18.88;4.65;;;;;;;9.38;100.00;99882.38;4863863;29;23719;-81
2023/12/24 08:43:19;;;;;;;18.55;5.05;;;;;;;9.40;100.00;99877.97;4837011;29;20068;-79
2023/12/24 08:45:47;;;;;;;12.30;5.00;;;;;;;9.40;100.00;99870.09;4823733;29;20049;-82
2023/12/24 08:48:14;;;;;;;16.17;5.05;;;;;;;9.42;100.00;99878.84;4844645;29;20056;-81
2023/12/24 08:50:42;;;;;;;15.23;4.72;;;;;;;9.43;100.00;99875.31;4852938;29;20048;-80
2023/12/24 08:53:11;;;;;;;19.13;5.35;;;;;;;9.44;100.00;99871.81;4851552;29;20053;-82
2023/12/24 08:55:38;;;;;;;25.42;5.68;;;;;;;9.43;100.00;99865.66;4850241;29;20480;-81
2023/12/24 08:58:06;;;;;;;17.02;5.30;;;;;;;9.46;100.00;99870.03;4842617;29;20057;-80
2023/12/24 09:00:33;;;;;;;22.70;5.63;;;;;;;9.45;100.00;99879.69;4807295;29;20066;-80
2023/12/24 09:03:01;;;;;;;13.40;4.80;;;;;;;9.47;100.00;99880.53;4829321;29;20071;-80
2023/12/24 09:05:28;;;;;;;21.33;6.10;;;;;;;9.48;100.00;99876.16;4831190;29;20061;-80
2023/12/24 09:07:56;;;;;;;25.75;5.38;;;;;;;9.49;100.00;99883.13;4853688;29;20056;-80
2023/12/24 09:10:23;;;;;;;25.50;5.07;;;;;;;9.50;100.00;99877.88;4873390;29;20534;-80
2023/12/24 09:12:50;;;;;;;20.58;4.97;;;;;;;9.52;100.00;99875.22;4859324;29;20057;-80
2023/12/24 09:15:18;;;;;;;20.80;5.45;;;;;;;9.53;100.00;99854.19;4811507;29;20053;-80
2023/12/24 09:17:46;;;;;;;18.65;4.78;;;;;;;9.55;100.00;99859.44;4833926;29;20060;-80
2023/12/24 09:20:14;;;;;;;17.23;5.00;;;;;;;9.55;100.00;99869.97;4826221;29;20699;-80
2023/12/24 09:22:41;;;;;;;24.60;5.30;;;;;;;9.57;100.00;99863.78;4818498;29;20052;-81
2023/12/24 09:25:09;;;;;;;22.67;5.05;;;;;;;9.60;100.00;99860.25;4858685;29;20056;-82
2023/12/24 09:27:36;;;;;;;16.88;4.63;;;;;;;9.61;100.00;99862.00;4858480;29;20049;-81
2023/12/24 09:30:06;;;;;;;20.85;4.68;;;;;;;9.62;100.00;99858.50;4842675;29;20056;-81
2023/12/24 09:32:34;;;;;;;21.25;5.65;;;;;;;9.65;100.00;99853.19;4776405;29;20055;-80
2023/12/24 09:35:02;;;;;;;17.08;4.18;;;;;;;9.66;100.00;99851.44;4845242;29;20056;-80
2023/12/24 09:37:31;;;;;;;21.60;4.88;;;;;;;9.68;100.00;99852.31;4842431;29;20053;-80
2023/12/24 09:39:58;;;;;;;30.83;6.57;;;;;;;9.69;100.00;99852.28;4843932;29;20061;-80
2023/12/24 09:42:26;;;;;;;21.15;5.47;;;;;;;9.70;100.00;99845.28;4853580;29;20053;-78
2023/12/24 09:44:53;;;;;;;16.08;5.25;;;;;;;9.70;100.00;99850.53;4856505;29;20064;-80
2023/12/24 09:47:21;;;;;;;21.73;5.53;;;;;;;9.71;100.00;99847.88;4827075;29;20053;-80
2023/12/24 09:49:48;;;;;;;22.13;4.93;;;;;;;9.71;100.00;99860.16;4836648;29;20522;-79
2023/12/24 09:52:16;;;;;;;18.45;4.82;;;;;;;9.72;100.00;99868.03;4850480;29;20053;-79
2023/12/24 09:54:43;;;;;;;22.67;5.05;;;;;;;9.74;100.00;99849.63;4846345;29;20056;-81
2023/12/24 09:57:10;;;;;;;18.02;4.57;;;;;;;9.75;100.00;99846.97;4826687;29;20060;-78
2023/12/24 09:59:38;;;;;;;22.55;6.35;;;;;;;9.76;100.00;99863.63;4828494;29;20503;-80
2023/12/24 10:02:05;;;;;;;13.25;4.50;;;;;;;9.78;100.00;99855.72;4809387;29;20057;-78
2023/12/24 10:04:33;;;;;;;26.90;5.68;;;;;;;9.80;100.00;99830.28;4842520;29;20041;-80
2023/12/24 10:07:00;;;;;;;21.00;5.20;;;;;;;9.81;100.00;99838.16;4845533;29;20753;-81
2023/12/24 10:09:46;;;;;;;24.20;4.35;;;;;;;9.83;100.00;99838.13;4872451;29;20550;-79
2023/12/24 10:12:14;;;;;;;23.23;4.20;;;;;;;9.83;100.00;99846.91;4860853;29;20392;-81
2023/12/24 10:14:54;;;;;;;12.82;3.90;;;;;;;9.85;100.00;99846.88;4859189;29;20045;-81
2023/12/24 10:17:29;;;;;;;15.63;4.40;;;;;;;9.86;100.00;99830.22;4833757;29;20049;-80
2023/12/24 10:19:58;;;;;;;14.43;3.80;;;;;;;9.86;100.00;99841.59;4839406;29;20048;-79
2023/12/24 10:22:27;;;;;;;13.25;4.70;;;;;;;9.87;100.00;99832.81;4850536;29;20053;-79
2023/12/24 10:25:03;;;;;;;24.35;5.20;;;;;;;9.87;100.00;99837.22;4843119;29;20423;-78
2023/12/24 10:27:31;;;;;;;24.55;4.63;;;;;;;9.87;100.00;99856.50;4829451;29;20049;-79
2023/12/24 10:30:12;;;;;;;13.23;3.33;;;;;;;9.88;100.00;99844.22;4859117;29;20057;-79
2023/12/24 10:32:42;;;;;;;19.50;4.57;;;;;;;9.88;100.00;99839.81;4820112;29;20402;-80
2023/12/24 10:35:10;;;;;;;15.02;3.53;;;;;;;9.89;100.00;99828.41;4780676;29;24086;-80
2023/12/24 10:37:38;;;;;;;15.32;3.72;;;;;;;9.91;100.00;99846.81;4841030;29;20495;-80
2023/12/24 10:40:10;;;;;;;15.43;3.67;;;;;;;9.92;100.00;99827.50;4841938;29;20088;-79
2023/12/24 10:42:39;;;;;;;20.45;4.20;;;;;;;9.93;100.00;99827.50;4820571;29;20064;-80
2023/12/24 10:45:08;;;;;;;13.15;3.92;;;;;;;9.95;100.00;99815.19;4846906;29;20605;-79
2023/12/24 10:47:36;;;;;;;11.68;3.38;;;;;;;9.99;100.00;99809.91;4856433;29;20049;-79
2023/12/24 10:50:04;;;;;;;17.15;3.40;;;;;;;10.00;100.00;99802.00;4827865;29;20064;-80
2023/12/24 10:52:32;;;;;;;20.70;3.58;;;;;;;10.03;100.00;99815.09;4874230;29;20063;-79
2023/12/24 10:55:02;;;;;;;15.05;3.47;;;;;;;10.07;100.00;99808.91;4863836;29;20057;-79
2023/12/24 10:57:52;;;;;;;14.47;3.80;;;;;;;10.09;100.00;99815.06;4854215;29;20141;-80
2023/12/24 11:00:20;;;;;;;13.00;2.90;;;;;;;10.11;100.00;99805.38;4862794;29;20515;-80
2023/12/24 11:02:49;;;;;;;16.85;3.55;;;;;;;10.14;100.00;99801.81;4825497;29;20064;-79
2023/12/24 11:05:39;;;;;;;18.00;4.57;;;;;;;10.19;100.00;99802.66;4832294;29;20044;-79
2023/12/24 11:08:19;;;;;;;14.65;3.20;;;;;;;10.22;100.00;99805.22;4867166;29;20071;-79
2023/12/24 11:10:56;;;;;;;12.25;3.80;;;;;;;10.25;100.00;99802.56;4838561;29;20045;-81
2023/12/24 11:13:29;;;;;;;15.10;3.80;;;;;;;10.29;100.00;99791.09;4845815;29;20396;-78
2023/12/24 11:15:58;;;;;;;16.58;3.13;;;;;;;10.31;100.00;99793.75;4862080;29;20053;-80
2023/12/24 11:18:48;;;;;;;19.83;3.35;;;;;;;10.37;100.00;99785.78;4859003;29;20049;-78
2023/12/24 11:21:19;;;;;;;13.45;2.55;;;;;;;10.41;100.00;99781.34;4868500;29;20131;-80
2023/12/24 11:24:09;;;;;;;12.27;2.88;;;;;;;10.44;100.00;99787.44;4866729;29;20052;-79
2023/12/24 11:26:36;;;;;;;10.43;2.75;;;;;;;10.46;100.00;99769.84;4843130;29;20502;-79
2023/12/24 11:29:42;;;;;;;11.88;3.10;;;;;;;10.48;100.00;99781.22;4858983;29;20061;-80
2023/12/24 11:32:30;;;;;;;11.63;2.78;;;;;;;10.50;100.00;99774.19;4868832;29;20051;-80